sensor_id;sensor_type;location;lat;lon;timestamp;P1;durP1;ratioP1;P2;durP2;ratioP2
1262;SDS011;62267;50.112;8.704;2023-07-30T00:00:19;5.50;;;4.60;;
1262;SDS011;62267;50.112;8.704;2023-07-30T00:02:47;4.60;;;4.23;;
1262;SDS011;62267;50.112;8.704;2023-07-30T00:05:15;5.60;;;5.10;;
1262;SDS011;62267;50.112;8.704;2023-07-30T00:07:42;5.07;;;4.50;;
1262;SDS011;62267;50.112;8.704;2023-07-30T00:10:10;5.70;;;5.13;;
1262;SDS011;62267;50.112;8.704;2023-07-30T00:12:37;6.43;;;5.70;;
1262;SDS011;62267;50.112;8.704;2023-07-30T00:15:05;5.30;;;4.90;;
1262;SDS011;62267;50.112;8.704;2023-07-30T00:17:33;5.40;;;4.90;;
1262;SDS011;62267;50.112;8.704;2023-07-30T00:20:00;4.77;;;4.37;;
1262;SDS011;62267;50.112;8.704;2023-07-30T00:22:28;6.00;;;4.83;;
1262;SDS011;62267;50.112;8.704;2023-07-30T00:24:55;6.87;;;5.10;;
1262;SDS011;62267;50.112;8.704;2023-07-30T00:27:22;4.63;;;4.33;;
1262;SDS011;62267;50.112;8.704;2023-07-30T00:29:50;4.77;;;4.37;;
1262;SDS011;62267;50.112;8.704;2023-07-30T00:32:17;4.90;;;4.50;;
1262;SDS011;62267;50.112;8.704;2023-07-30T00:34:45;5.30;;;4.80;;
1262;SDS011;62267;50.112;8.704;2023-07-30T00:37:12;7.37;;;5.10;;
1262;SDS011;62267;50.112;8.704;2023-07-30T00:39:40;5.07;;;4.67;;
1262;SDS011;62267;50.112;8.704;2023-07-30T00:42:07;4.77;;;4.47;;
1262;SDS011;62267;50.112;8.704;2023-07-30T00:44:34;5.30;;;4.87;;
1262;SDS011;62267;50.112;8.704;2023-07-30T00:47:02;5.30;;;4.87;;
1262;SDS011;62267;50.112;8.704;2023-07-30T00:49:29;5.10;;;4.60;;
1262;SDS011;62267;50.112;8.704;2023-07-30T00:51:57;5.50;;;4.60;;
1262;SDS011;62267;50.112;8.704;2023-07-30T00:54:25;5.97;;;5.47;;
1262;SDS011;62267;50.112;8.704;2023-07-30T00:56:53;5.70;;;5.20;;
1262;SDS011;62267;50.112;8.704;2023-07-30T00:59:20;5.60;;;5.10;;
1262;SDS011;62267;50.112;8.704;2023-07-30T01:01:48;6.13;;;5.60;;
1262;SDS011;62267;50.112;8.704;2023-07-30T01:04:18;5.13;;;4.73;;
1262;SDS011;62267;50.112;8.704;2023-07-30T01:06:46;5.73;;;5.23;;
1262;SDS011;62267;50.112;8.704;2023-07-30T01:09:15;5.93;;;5.00;;
1262;SDS011;62267;50.112;8.704;2023-07-30T01:11:43;4.43;;;4.03;;
1262;SDS011;62267;50.112;8.704;2023-07-30T01:14:11;5.90;;;5.50;;
1262;SDS011;62267;50.112;8.704;2023-07-30T01:16:41;4.90;;;4.57;;
1262;SDS011;62267;50.112;8.704;2023-07-30T01:19:08;5.10;;;4.70;;
1262;SDS011;62267;50.112;8.704;2023-07-30T01:21:36;6.07;;;5.47;;
1262;SDS011;62267;50.112;8.704;2023-07-30T01:24:04;5.70;;;5.10;;
1262;SDS011;62267;50.112;8.704;2023-07-30T01:29:11;5.87;;;5.20;;
1262;SDS011;62267;50.112;8.704;2023-07-30T01:31:40;5.30;;;4.90;;
1262;SDS011;62267;50.112;8.704;2023-07-30T01:34:08;5.67;;;4.80;;
1262;SDS011;62267;50.112;8.704;2023-07-30T01:36:37;5.10;;;4.70;;
1262;SDS011;62267;50.112;8.704;2023-07-30T01:39:04;5.27;;;4.77;;
1262;SDS011;62267;50.112;8.704;2023-07-30T01:41:33;6.37;;;5.17;;
1262;SDS011;62267;50.112;8.704;2023-07-30T01:44:01;5.50;;;5.10;;
1262;SDS011;62267;50.112;8.704;2023-07-30T01:46:29;5.40;;;5.00;;
1262;SDS011;62267;50.112;8.704;2023-07-30T01:48:56;6.20;;;5.27;;
1262;SDS011;62267;50.112;8.704;2023-07-30T01:51:24;5.60;;;5.20;;
1262;SDS011;62267;50.112;8.704;2023-07-30T01:53:51;5.13;;;4.63;;
1262;SDS011;62267;50.112;8.704;2023-07-30T01:56:19;5.60;;;5.20;;
1262;SDS011;62267;50.112;8.704;2023-07-30T01:58:46;5.43;;;4.97;;
1262;SDS011;62267;50.112;8.704;2023-07-30T02:01:15;5.57;;;5.07;;
1262;SDS011;62267;50.112;8.704;2023-07-30T02:03:43;5.80;;;4.97;;
1262;SDS011;62267;50.112;8.704;2023-07-30T02:06:10;5.40;;;4.90;;
1262;SDS011;62267;50.112;8.704;2023-07-30T02:08:38;5.03;;;4.43;;
1262;SDS011;62267;50.112;8.704;2023-07-30T02:11:06;5.83;;;5.43;;
1262;SDS011;62267;50.112;8.704;2023-07-30T02:13:34;4.80;;;4.50;;
1262;SDS011;62267;50.112;8.704;2023-07-30T02:16:02;5.20;;;4.70;;
1262;SDS011;62267;50.112;8.704;2023-07-30T02:18:29;5.77;;;5.27;;
1262;SDS011;62267;50.112;8.704;2023-07-30T02:20:57;4.93;;;4.53;;
1262;SDS011;62267;50.112;8.704;2023-07-30T02:23:24;4.60;;;4.30;;
1262;SDS011;62267;50.112;8.704;2023-07-30T02:25:52;6.00;;;5.40;;
1262;SDS011;62267;50.112;8.704;2023-07-30T02:28:19;6.23;;;5.03;;
1262;SDS011;62267;50.112;8.704;2023-07-30T02:30:47;5.43;;;5.03;;
1262;SDS011;62267;50.112;8.704;2023-07-30T02:33:14;4.73;;;4.30;;
1262;SDS011;62267;50.112;8.704;2023-07-30T02:35:45;5.07;;;4.57;;
1262;SDS011;62267;50.112;8.704;2023-07-30T02:38:14;4.90;;;4.40;;
1262;SDS011;62267;50.112;8.704;2023-07-30T02:40:41;5.10;;;4.50;;
1262;SDS011;62267;50.112;8.704;2023-07-30T02:43:09;4.80;;;4.27;;
1262;SDS011;62267;50.112;8.704;2023-07-30T02:45:38;5.87;;;5.27;;
1262;SDS011;62267;50.112;8.704;2023-07-30T02:48:05;5.03;;;4.53;;
1262;SDS011;62267;50.112;8.704;2023-07-30T02:50:33;4.77;;;4.37;;
1262;SDS011;62267;50.112;8.704;2023-07-30T02:53:00;4.63;;;4.00;;
1262;SDS011;62267;50.112;8.704;2023-07-30T02:55:28;4.90;;;4.57;;
1262;SDS011;62267;50.112;8.704;2023-07-30T02:57:58;6.27;;;4.57;;
1262;SDS011;62267;50.112;8.704;2023-07-30T03:00:26;5.20;;;4.70;;
1262;SDS011;62267;50.112;8.704;2023-07-30T03:02:54;5.80;;;5.03;;
1262;SDS011;62267;50.112;8.704;2023-07-30T03:05:21;4.80;;;4.40;;
1262;SDS011;62267;50.112;8.704;2023-07-30T03:07:49;4.90;;;4.33;;
1262;SDS011;62267;50.112;8.704;2023-07-30T03:10:17;4.53;;;4.13;;
1262;SDS011;62267;50.112;8.704;2023-07-30T03:12:45;4.53;;;4.20;;
1262;SDS011;62267;50.112;8.704;2023-07-30T03:15:12;4.70;;;4.30;;
1262;SDS011;62267;50.112;8.704;2023-07-30T03:17:40;4.13;;;3.77;;
1262;SDS011;62267;50.112;8.704;2023-07-30T03:20:07;5.23;;;4.07;;
1262;SDS011;62267;50.112;8.704;2023-07-30T03:22:35;4.73;;;4.33;;
1262;SDS011;62267;50.112;8.704;2023-07-30T03:25:03;4.80;;;4.40;;
1262;SDS011;62267;50.112;8.704;2023-07-30T03:27:30;4.37;;;3.97;;
1262;SDS011;62267;50.112;8.704;2023-07-30T03:29:58;4.23;;;3.93;;
1262;SDS011;62267;50.112;8.704;2023-07-30T03:32:26;4.30;;;3.90;;
1262;SDS011;62267;50.112;8.704;2023-07-30T03:34:54;3.57;;;3.37;;
1262;SDS011;62267;50.112;8.704;2023-07-30T03:37:21;3.93;;;3.63;;
1262;SDS011;62267;50.112;8.704;2023-07-30T03:39:48;4.33;;;4.03;;
1262;SDS011;62267;50.112;8.704;2023-07-30T03:42:15;4.30;;;3.97;;
1262;SDS011;62267;50.112;8.704;2023-07-30T03:44:43;4.43;;;4.03;;
1262;SDS011;62267;50.112;8.704;2023-07-30T03:47:10;3.60;;;3.37;;
1262;SDS011;62267;50.112;8.704;2023-07-30T03:49:37;5.13;;;4.33;;
1262;SDS011;62267;50.112;8.704;2023-07-30T03:52:04;3.50;;;3.20;;
1262;SDS011;62267;50.112;8.704;2023-07-30T03:54:32;3.83;;;3.40;;
1262;SDS011;62267;50.112;8.704;2023-07-30T03:56:59;3.47;;;2.97;;
1262;SDS011;62267;50.112;8.704;2023-07-30T03:59:27;3.33;;;3.13;;
1262;SDS011;62267;50.112;8.704;2023-07-30T04:01:55;6.00;;;2.97;;
1262;SDS011;62267;50.112;8.704;2023-07-30T04:04:23;3.97;;;2.90;;
1262;SDS011;62267;50.112;8.704;2023-07-30T04:06:51;3.07;;;2.80;;
1262;SDS011;62267;50.112;8.704;2023-07-30T04:09:18;3.67;;;2.80;;
1262;SDS011;62267;50.112;8.704;2023-07-30T04:11:45;5.03;;;2.93;;
1262;SDS011;62267;50.112;8.704;2023-07-30T04:14:13;2.97;;;2.77;;
1262;SDS011;62267;50.112;8.704;2023-07-30T04:16:40;3.40;;;3.13;;
1262;SDS011;62267;50.112;8.704;2023-07-30T04:19:10;3.10;;;2.90;;
1262;SDS011;62267;50.112;8.704;2023-07-30T04:21:37;4.43;;;3.10;;
1262;SDS011;62267;50.112;8.704;2023-07-30T04:24:05;3.27;;;3.07;;
1262;SDS011;62267;50.112;8.704;2023-07-30T04:26:33;6.47;;;3.40;;
1262;SDS011;62267;50.112;8.704;2023-07-30T04:29:00;3.57;;;3.27;;
1262;SDS011;62267;50.112;8.704;2023-07-30T04:31:28;3.83;;;3.57;;
1262;SDS011;62267;50.112;8.704;2023-07-30T04:33:55;4.10;;;3.70;;
1262;SDS011;62267;50.112;8.704;2023-07-30T04:36:23;3.87;;;3.53;;
1262;SDS011;62267;50.112;8.704;2023-07-30T04:38:51;3.07;;;2.87;;
1262;SDS011;62267;50.112;8.704;2023-07-30T04:41:21;5.67;;;2.80;;
1262;SDS011;62267;50.112;8.704;2023-07-30T04:43:54;3.37;;;3.10;;
1262;SDS011;62267;50.112;8.704;2023-07-30T04:46:21;3.53;;;3.33;;
1262;SDS011;62267;50.112;8.704;2023-07-30T04:48:48;4.60;;;3.40;;
1262;SDS011;62267;50.112;8.704;2023-07-30T04:51:18;2.97;;;2.77;;
1262;SDS011;62267;50.112;8.704;2023-07-30T04:53:46;5.60;;;3.30;;
1262;SDS011;62267;50.112;8.704;2023-07-30T04:56:13;3.87;;;3.40;;
1262;SDS011;62267;50.112;8.704;2023-07-30T04:58:41;3.57;;;3.30;;
1262;SDS011;62267;50.112;8.704;2023-07-30T05:01:09;3.70;;;3.40;;
1262;SDS011;62267;50.112;8.704;2023-07-30T05:03:36;3.57;;;3.37;;
1262;SDS011;62267;50.112;8.704;2023-07-30T05:06:05;4.00;;;3.70;;
1262;SDS011;62267;50.112;8.704;2023-07-30T05:08:32;3.20;;;2.90;;
1262;SDS011;62267;50.112;8.704;2023-07-30T05:11:00;4.30;;;3.20;;
1262;SDS011;62267;50.112;8.704;2023-07-30T05:13:27;5.50;;;3.10;;
1262;SDS011;62267;50.112;8.704;2023-07-30T05:15:55;3.30;;;3.10;;
1262;SDS011;62267;50.112;8.704;2023-07-30T05:18:22;3.17;;;2.97;;
1262;SDS011;62267;50.112;8.704;2023-07-30T05:20:50;5.10;;;3.17;;
1262;SDS011;62267;50.112;8.704;2023-07-30T05:23:17;3.40;;;3.13;;
1262;SDS011;62267;50.112;8.704;2023-07-30T05:25:44;2.97;;;2.77;;
1262;SDS011;62267;50.112;8.704;2023-07-30T05:28:12;3.27;;;2.97;;
1262;SDS011;62267;50.112;8.704;2023-07-30T05:30:40;3.10;;;2.90;;
1262;SDS011;62267;50.112;8.704;2023-07-30T05:33:07;3.70;;;3.40;;
1262;SDS011;62267;50.112;8.704;2023-07-30T05:35:34;3.63;;;3.13;;
1262;SDS011;62267;50.112;8.704;2023-07-30T05:38:02;3.40;;;3.20;;
1262;SDS011;62267;50.112;8.704;2023-07-30T05:40:31;3.40;;;3.10;;
1262;SDS011;62267;50.112;8.704;2023-07-30T05:42:58;4.90;;;3.43;;
1262;SDS011;62267;50.112;8.704;2023-07-30T05:45:27;3.30;;;3.10;;
1262;SDS011;62267;50.112;8.704;2023-07-30T05:47:54;3.00;;;2.77;;
1262;SDS011;62267;50.112;8.704;2023-07-30T05:50:21;3.30;;;3.00;;
1262;SDS011;62267;50.112;8.704;2023-07-30T05:52:48;3.23;;;2.93;;
1262;SDS011;62267;50.112;8.704;2023-07-30T05:55:16;3.70;;;3.40;;
1262;SDS011;62267;50.112;8.704;2023-07-30T05:57:43;3.30;;;3.00;;
1262;SDS011;62267;50.112;8.704;2023-07-30T06:00:10;5.13;;;3.93;;
1262;SDS011;62267;50.112;8.704;2023-07-30T06:02:38;3.40;;;3.20;;
1262;SDS011;62267;50.112;8.704;2023-07-30T06:05:05;4.23;;;3.93;;
1262;SDS011;62267;50.112;8.704;2023-07-30T06:07:33;3.20;;;3.00;;
1262;SDS011;62267;50.112;8.704;2023-07-30T06:10:00;4.70;;;3.37;;
1262;SDS011;62267;50.112;8.704;2023-07-30T06:12:28;3.63;;;3.33;;
1262;SDS011;62267;50.112;8.704;2023-07-30T06:14:55;6.93;;;3.90;;
1262;SDS011;62267;50.112;8.704;2023-07-30T06:17:22;4.63;;;4.23;;
1262;SDS011;62267;50.112;8.704;2023-07-30T06:19:49;5.27;;;3.50;;
1262;SDS011;62267;50.112;8.704;2023-07-30T06:22:17;3.50;;;3.20;;
1262;SDS011;62267;50.112;8.704;2023-07-30T06:24:44;3.40;;;3.10;;
1262;SDS011;62267;50.112;8.704;2023-07-30T06:27:11;6.27;;;3.83;;
1262;SDS011;62267;50.112;8.704;2023-07-30T06:29:38;4.97;;;4.17;;
1262;SDS011;62267;50.112;8.704;2023-07-30T06:32:06;3.70;;;3.40;;
1262;SDS011;62267;50.112;8.704;2023-07-30T06:34:33;3.40;;;3.20;;
1262;SDS011;62267;50.112;8.704;2023-07-30T06:37:00;4.97;;;3.30;;
1262;SDS011;62267;50.112;8.704;2023-07-30T06:39:27;4.00;;;3.40;;
1262;SDS011;62267;50.112;8.704;2023-07-30T06:41:55;3.70;;;3.40;;
1262;SDS011;62267;50.112;8.704;2023-07-30T06:44:24;3.63;;;3.13;;
1262;SDS011;62267;50.112;8.704;2023-07-30T06:46:51;3.17;;;2.97;;
1262;SDS011;62267;50.112;8.704;2023-07-30T06:49:19;4.17;;;3.30;;
1262;SDS011;62267;50.112;8.704;2023-07-30T06:51:46;4.00;;;3.70;;
1262;SDS011;62267;50.112;8.704;2023-07-30T06:54:14;3.50;;;3.10;;
1262;SDS011;62267;50.112;8.704;2023-07-30T06:56:41;3.17;;;2.97;;
1262;SDS011;62267;50.112;8.704;2023-07-30T06:59:08;4.50;;;3.17;;
1262;SDS011;62267;50.112;8.704;2023-07-30T07:01:37;3.70;;;3.40;;
1262;SDS011;62267;50.112;8.704;2023-07-30T07:04:04;4.60;;;3.77;;
1262;SDS011;62267;50.112;8.704;2023-07-30T07:06:32;3.40;;;3.10;;
1262;SDS011;62267;50.112;8.704;2023-07-30T07:08:59;4.00;;;2.97;;
1262;SDS011;62267;50.112;8.704;2023-07-30T07:11:26;4.17;;;3.77;;
1262;SDS011;62267;50.112;8.704;2023-07-30T07:13:53;3.67;;;3.10;;
1262;SDS011;62267;50.112;8.704;2023-07-30T07:16:21;3.90;;;3.03;;
1262;SDS011;62267;50.112;8.704;2023-07-30T07:18:48;3.60;;;3.40;;
1262;SDS011;62267;50.112;8.704;2023-07-30T07:21:15;3.03;;;2.83;;
1262;SDS011;62267;50.112;8.704;2023-07-30T07:23:42;3.40;;;3.10;;
1262;SDS011;62267;50.112;8.704;2023-07-30T07:26:10;3.50;;;3.00;;
1262;SDS011;62267;50.112;8.704;2023-07-30T07:28:37;3.33;;;2.93;;
1262;SDS011;62267;50.112;8.704;2023-07-30T07:31:04;3.40;;;3.20;;
1262;SDS011;62267;50.112;8.704;2023-07-30T07:33:32;4.83;;;3.27;;
1262;SDS011;62267;50.112;8.704;2023-07-30T07:36:06;3.50;;;3.20;;
1262;SDS011;62267;50.112;8.704;2023-07-30T07:38:33;7.10;;;2.97;;
1262;SDS011;62267;50.112;8.704;2023-07-30T07:41:01;2.90;;;2.70;;
1262;SDS011;62267;50.112;8.704;2023-07-30T07:43:28;3.13;;;2.87;;
1262;SDS011;62267;50.112;8.704;2023-07-30T07:45:56;2.83;;;2.60;;
1262;SDS011;62267;50.112;8.704;2023-07-30T07:48:23;3.60;;;3.30;;
1262;SDS011;62267;50.112;8.704;2023-07-30T07:50:50;3.10;;;2.83;;
1262;SDS011;62267;50.112;8.704;2023-07-30T07:53:17;3.47;;;3.17;;
1262;SDS011;62267;50.112;8.704;2023-07-30T07:55:44;3.07;;;2.80;;
1262;SDS011;62267;50.112;8.704;2023-07-30T07:58:12;3.50;;;3.20;;
1262;SDS011;62267;50.112;8.704;2023-07-30T08:00:39;5.47;;;3.00;;
1262;SDS011;62267;50.112;8.704;2023-07-30T08:03:06;3.03;;;2.83;;
1262;SDS011;62267;50.112;8.704;2023-07-30T08:05:33;3.47;;;3.17;;
1262;SDS011;62267;50.112;8.704;2023-07-30T08:08:02;3.73;;;3.37;;
1262;SDS011;62267;50.112;8.704;2023-07-30T08:10:29;2.93;;;2.63;;
1262;SDS011;62267;50.112;8.704;2023-07-30T08:12:56;3.27;;;3.07;;
1262;SDS011;62267;50.112;8.704;2023-07-30T08:15:23;4.03;;;2.90;;
1262;SDS011;62267;50.112;8.704;2023-07-30T08:17:51;2.83;;;2.63;;
1262;SDS011;62267;50.112;8.704;2023-07-30T08:20:19;2.83;;;2.63;;
1262;SDS011;62267;50.112;8.704;2023-07-30T08:22:46;3.33;;;3.00;;
1262;SDS011;62267;50.112;8.704;2023-07-30T08:25:13;3.00;;;2.80;;
1262;SDS011;62267;50.112;8.704;2023-07-30T08:27:41;2.60;;;2.40;;
1262;SDS011;62267;50.112;8.704;2023-07-30T08:30:08;2.80;;;2.40;;
1262;SDS011;62267;50.112;8.704;2023-07-30T08:32:36;2.90;;;2.70;;
1262;SDS011;62267;50.112;8.704;2023-07-30T08:35:06;3.00;;;2.80;;
1262;SDS011;62267;50.112;8.704;2023-07-30T08:37:33;3.23;;;3.03;;
1262;SDS011;62267;50.112;8.704;2023-07-30T08:40:01;3.40;;;3.07;;
1262;SDS011;62267;50.112;8.704;2023-07-30T08:42:29;3.30;;;3.00;;
1262;SDS011;62267;50.112;8.704;2023-07-30T08:44:56;3.63;;;3.33;;
1262;SDS011;62267;50.112;8.704;2023-07-30T08:47:24;3.17;;;2.97;;
1262;SDS011;62267;50.112;8.704;2023-07-30T08:49:52;2.67;;;2.47;;
1262;SDS011;62267;50.112;8.704;2023-07-30T08:52:21;2.90;;;2.70;;
1262;SDS011;62267;50.112;8.704;2023-07-30T08:54:50;3.00;;;2.80;;
1262;SDS011;62267;50.112;8.704;2023-07-30T08:57:18;3.80;;;3.50;;
1262;SDS011;62267;50.112;8.704;2023-07-30T08:59:49;5.00;;;4.50;;
1262;SDS011;62267;50.112;8.704;2023-07-30T09:02:18;3.03;;;2.83;;
1262;SDS011;62267;50.112;8.704;2023-07-30T09:04:49;2.50;;;2.40;;
1262;SDS011;62267;50.112;8.704;2023-07-30T09:07:19;2.97;;;2.67;;
1262;SDS011;62267;50.112;8.704;2023-07-30T09:09:47;2.90;;;2.70;;
1262;SDS011;62267;50.112;8.704;2023-07-30T09:12:15;2.97;;;2.77;;
1262;SDS011;62267;50.112;8.704;2023-07-30T09:14:42;3.03;;;2.73;;
1262;SDS011;62267;50.112;8.704;2023-07-30T09:17:18;2.97;;;2.77;;
1262;SDS011;62267;50.112;8.704;2023-07-30T09:19:46;4.40;;;3.03;;
1262;SDS011;62267;50.112;8.704;2023-07-30T09:22:13;3.33;;;3.03;;
1262;SDS011;62267;50.112;8.704;2023-07-30T09:24:46;3.43;;;3.13;;
1262;SDS011;62267;50.112;8.704;2023-07-30T09:27:19;3.33;;;3.10;;
1262;SDS011;62267;50.112;8.704;2023-07-30T09:29:53;3.07;;;2.87;;
1262;SDS011;62267;50.112;8.704;2023-07-30T09:32:25;3.77;;;3.30;;
1262;SDS011;62267;50.112;8.704;2023-07-30T09:34:53;3.27;;;3.07;;
1262;SDS011;62267;50.112;8.704;2023-07-30T09:37:20;5.67;;;3.07;;
1262;SDS011;62267;50.112;8.704;2023-07-30T09:39:48;4.20;;;3.80;;
1262;SDS011;62267;50.112;8.704;2023-07-30T09:42:15;3.80;;;3.60;;
1262;SDS011;62267;50.112;8.704;2023-07-30T09:44:42;4.97;;;3.80;;
1262;SDS011;62267;50.112;8.704;2023-07-30T09:47:14;3.23;;;2.93;;
1262;SDS011;62267;50.112;8.704;2023-07-30T09:49:41;2.90;;;2.70;;
1262;SDS011;62267;50.112;8.704;2023-07-30T09:52:09;3.53;;;2.90;;
1262;SDS011;62267;50.112;8.704;2023-07-30T09:54:37;2.93;;;2.37;;
1262;SDS011;62267;50.112;8.704;2023-07-30T09:57:05;3.30;;;2.97;;
1262;SDS011;62267;50.112;8.704;2023-07-30T09:59:33;3.00;;;2.33;;
1262;SDS011;62267;50.112;8.704;2023-07-30T10:02:01;2.57;;;1.97;;
1262;SDS011;62267;50.112;8.704;2023-07-30T10:04:29;2.57;;;2.37;;
1262;SDS011;62267;50.112;8.704;2023-07-30T10:06:58;2.27;;;2.10;;
1262;SDS011;62267;50.112;8.704;2023-07-30T10:09:29;2.33;;;2.13;;
1262;SDS011;62267;50.112;8.704;2023-07-30T10:11:57;2.73;;;2.30;;
1262;SDS011;62267;50.112;8.704;2023-07-30T10:14:27;3.50;;;3.20;;
1262;SDS011;62267;50.112;8.704;2023-07-30T10:16:55;2.63;;;2.43;;
1262;SDS011;62267;50.112;8.704;2023-07-30T10:19:25;2.47;;;2.30;;
1262;SDS011;62267;50.112;8.704;2023-07-30T10:24:38;2.60;;;2.40;;
1262;SDS011;62267;50.112;8.704;2023-07-30T10:27:06;2.50;;;2.40;;
1262;SDS011;62267;50.112;8.704;2023-07-30T10:29:34;2.87;;;2.67;;
1262;SDS011;62267;50.112;8.704;2023-07-30T10:32:06;2.50;;;2.30;;
1262;SDS011;62267;50.112;8.704;2023-07-30T10:34:46;2.47;;;2.27;;
1262;SDS011;62267;50.112;8.704;2023-07-30T10:37:22;4.27;;;2.53;;
1262;SDS011;62267;50.112;8.704;2023-07-30T10:39:52;2.10;;;2.00;;
1262;SDS011;62267;50.112;8.704;2023-07-30T10:42:20;2.57;;;2.37;;
1262;SDS011;62267;50.112;8.704;2023-07-30T10:44:48;1.93;;;1.83;;
1262;SDS011;62267;50.112;8.704;2023-07-30T10:47:16;3.70;;;2.40;;
1262;SDS011;62267;50.112;8.704;2023-07-30T10:50:02;2.20;;;2.10;;
1262;SDS011;62267;50.112;8.704;2023-07-30T10:52:29;2.00;;;1.90;;
1262;SDS011;62267;50.112;8.704;2023-07-30T10:55:00;2.60;;;2.37;;
1262;SDS011;62267;50.112;8.704;2023-07-30T10:57:31;2.73;;;2.53;;
1262;SDS011;62267;50.112;8.704;2023-07-30T10:59:59;3.50;;;2.30;;
1262;SDS011;62267;50.112;8.704;2023-07-30T11:02:27;2.50;;;2.30;;
1262;SDS011;62267;50.112;8.704;2023-07-30T11:04:56;2.30;;;2.10;;
1262;SDS011;62267;50.112;8.704;2023-07-30T11:07:23;5.90;;;2.60;;
1262;SDS011;62267;50.112;8.704;2023-07-30T11:10:00;2.70;;;2.00;;
1262;SDS011;62267;50.112;8.704;2023-07-30T11:12:28;2.77;;;2.37;;
1262;SDS011;62267;50.112;8.704;2023-07-30T11:15:02;2.30;;;2.10;;
1262;SDS011;62267;50.112;8.704;2023-07-30T11:17:29;2.60;;;2.40;;
1262;SDS011;62267;50.112;8.704;2023-07-30T11:19:56;3.00;;;2.73;;
1262;SDS011;62267;50.112;8.704;2023-07-30T11:22:30;2.90;;;2.70;;
1262;SDS011;62267;50.112;8.704;2023-07-30T11:24:58;2.80;;;2.60;;
1262;SDS011;62267;50.112;8.704;2023-07-30T11:27:28;3.60;;;3.30;;
1262;SDS011;62267;50.112;8.704;2023-07-30T11:29:56;3.93;;;3.60;;
1262;SDS011;62267;50.112;8.704;2023-07-30T11:32:24;4.47;;;2.47;;
1262;SDS011;62267;50.112;8.704;2023-07-30T11:34:52;5.33;;;3.73;;
1262;SDS011;62267;50.112;8.704;2023-07-30T11:37:20;3.60;;;2.90;;
1262;SDS011;62267;50.112;8.704;2023-07-30T11:39:48;2.70;;;2.20;;
1262;SDS011;62267;50.112;8.704;2023-07-30T11:42:17;2.70;;;2.50;;
1262;SDS011;62267;50.112;8.704;2023-07-30T11:44:45;3.77;;;3.00;;
1262;SDS011;62267;50.112;8.704;2023-07-30T11:47:13;3.50;;;2.90;;
1262;SDS011;62267;50.112;8.704;2023-07-30T11:49:56;3.30;;;3.00;;
1262;SDS011;62267;50.112;8.704;2023-07-30T11:52:25;2.50;;;2.30;;
1262;SDS011;62267;50.112;8.704;2023-07-30T11:55:02;2.70;;;2.50;;
1262;SDS011;62267;50.112;8.704;2023-07-30T11:57:34;2.57;;;2.37;;
1262;SDS011;62267;50.112;8.704;2023-07-30T12:00:01;6.20;;;2.60;;
1262;SDS011;62267;50.112;8.704;2023-07-30T12:02:37;3.20;;;2.50;;
1262;SDS011;62267;50.112;8.704;2023-07-30T12:05:05;3.20;;;2.57;;
1262;SDS011;62267;50.112;8.704;2023-07-30T12:07:41;3.33;;;3.00;;
1262;SDS011;62267;50.112;8.704;2023-07-30T12:10:09;5.33;;;2.50;;
1262;SDS011;62267;50.112;8.704;2023-07-30T12:12:43;5.27;;;3.27;;
1262;SDS011;62267;50.112;8.704;2023-07-30T12:15:11;4.27;;;2.93;;
1262;SDS011;62267;50.112;8.704;2023-07-30T12:17:39;2.83;;;2.50;;
1262;SDS011;62267;50.112;8.704;2023-07-30T12:20:06;5.33;;;3.13;;
1262;SDS011;62267;50.112;8.704;2023-07-30T12:22:34;2.93;;;2.60;;
1262;SDS011;62267;50.112;8.704;2023-07-30T12:25:02;6.03;;;4.83;;
1262;SDS011;62267;50.112;8.704;2023-07-30T12:27:31;4.80;;;2.60;;
1262;SDS011;62267;50.112;8.704;2023-07-30T12:29:58;2.97;;;2.60;;
1262;SDS011;62267;50.112;8.704;2023-07-30T12:32:25;4.07;;;3.00;;
1262;SDS011;62267;50.112;8.704;2023-07-30T12:34:55;4.63;;;2.93;;
1262;SDS011;62267;50.112;8.704;2023-07-30T12:37:22;4.80;;;2.80;;
1262;SDS011;62267;50.112;8.704;2023-07-30T12:39:49;4.60;;;2.50;;
1262;SDS011;62267;50.112;8.704;2023-07-30T12:42:17;3.13;;;2.80;;
1262;SDS011;62267;50.112;8.704;2023-07-30T12:44:44;3.50;;;3.00;;
1262;SDS011;62267;50.112;8.704;2023-07-30T12:47:11;3.40;;;2.90;;
1262;SDS011;62267;50.112;8.704;2023-07-30T12:49:38;3.77;;;2.80;;
1262;SDS011;62267;50.112;8.704;2023-07-30T12:52:06;5.50;;;3.13;;
1262;SDS011;62267;50.112;8.704;2023-07-30T12:54:33;2.47;;;2.27;;
1262;SDS011;62267;50.112;8.704;2023-07-30T12:57:00;4.83;;;2.70;;
1262;SDS011;62267;50.112;8.704;2023-07-30T12:59:29;3.37;;;2.50;;
1262;SDS011;62267;50.112;8.704;2023-07-30T13:01:57;4.13;;;3.73;;
1262;SDS011;62267;50.112;8.704;2023-07-30T13:04:25;4.23;;;2.90;;
1262;SDS011;62267;50.112;8.704;2023-07-30T13:06:54;3.23;;;2.93;;
1262;SDS011;62267;50.112;8.704;2023-07-30T13:09:22;5.03;;;2.57;;
1262;SDS011;62267;50.112;8.704;2023-07-30T13:11:52;7.07;;;3.40;;
1262;SDS011;62267;50.112;8.704;2023-07-30T13:14:19;3.97;;;2.80;;
1262;SDS011;62267;50.112;8.704;2023-07-30T13:16:46;4.70;;;3.33;;
1262;SDS011;62267;50.112;8.704;2023-07-30T13:19:14;3.00;;;2.70;;
1262;SDS011;62267;50.112;8.704;2023-07-30T13:21:41;3.03;;;2.50;;
1262;SDS011;62267;50.112;8.704;2023-07-30T13:24:08;3.83;;;2.67;;
1262;SDS011;62267;50.112;8.704;2023-07-30T13:26:36;4.87;;;3.23;;
1262;SDS011;62267;50.112;8.704;2023-07-30T13:29:04;4.63;;;2.70;;
1262;SDS011;62267;50.112;8.704;2023-07-30T13:31:32;4.23;;;2.67;;
1262;SDS011;62267;50.112;8.704;2023-07-30T13:33:59;3.80;;;2.30;;
1262;SDS011;62267;50.112;8.704;2023-07-30T13:36:26;4.80;;;3.20;;
1262;SDS011;62267;50.112;8.704;2023-07-30T13:38:54;4.47;;;2.80;;
1262;SDS011;62267;50.112;8.704;2023-07-30T13:41:21;2.60;;;2.40;;
1262;SDS011;62267;50.112;8.704;2023-07-30T13:43:48;3.67;;;3.33;;
1262;SDS011;62267;50.112;8.704;2023-07-30T13:46:16;3.53;;;3.10;;
1262;SDS011;62267;50.112;8.704;2023-07-30T13:48:43;2.50;;;2.30;;
1262;SDS011;62267;50.112;8.704;2023-07-30T13:51:10;3.37;;;2.80;;
1262;SDS011;62267;50.112;8.704;2023-07-30T13:53:37;4.30;;;2.40;;
1262;SDS011;62267;50.112;8.704;2023-07-30T13:56:07;3.30;;;3.00;;
1262;SDS011;62267;50.112;8.704;2023-07-30T13:58:35;6.70;;;3.00;;
1262;SDS011;62267;50.112;8.704;2023-07-30T14:01:03;4.20;;;2.70;;
1262;SDS011;62267;50.112;8.704;2023-07-30T14:03:31;2.90;;;2.70;;
1262;SDS011;62267;50.112;8.704;2023-07-30T14:05:58;6.90;;;3.00;;
1262;SDS011;62267;50.112;8.704;2023-07-30T14:08:25;2.93;;;2.67;;
1262;SDS011;62267;50.112;8.704;2023-07-30T14:10:52;6.53;;;4.90;;
1262;SDS011;62267;50.112;8.704;2023-07-30T14:13:20;5.07;;;2.70;;
1262;SDS011;62267;50.112;8.704;2023-07-30T14:15:48;3.80;;;2.60;;
1262;SDS011;62267;50.112;8.704;2023-07-30T14:18:15;6.23;;;2.67;;
1262;SDS011;62267;50.112;8.704;2023-07-30T14:20:42;4.60;;;2.90;;
1262;SDS011;62267;50.112;8.704;2023-07-30T14:23:10;3.63;;;2.80;;
1262;SDS011;62267;50.112;8.704;2023-07-30T14:25:37;3.60;;;3.00;;
1262;SDS011;62267;50.112;8.704;2023-07-30T14:28:05;2.97;;;2.67;;
1262;SDS011;62267;50.112;8.704;2023-07-30T14:30:32;4.57;;;2.70;;
1262;SDS011;62267;50.112;8.704;2023-07-30T14:33:02;2.63;;;2.43;;
1262;SDS011;62267;50.112;8.704;2023-07-30T14:35:29;3.40;;;2.63;;
1262;SDS011;62267;50.112;8.704;2023-07-30T14:37:57;4.60;;;2.50;;
1262;SDS011;62267;50.112;8.704;2023-07-30T14:40:24;3.23;;;2.90;;
1262;SDS011;62267;50.112;8.704;2023-07-30T14:42:51;3.20;;;3.00;;
1262;SDS011;62267;50.112;8.704;2023-07-30T14:45:18;4.53;;;3.23;;
1262;SDS011;62267;50.112;8.704;2023-07-30T14:47:48;4.27;;;3.13;;
1262;SDS011;62267;50.112;8.704;2023-07-30T14:50:15;8.43;;;3.30;;
1262;SDS011;62267;50.112;8.704;2023-07-30T14:52:43;3.80;;;3.50;;
1262;SDS011;62267;50.112;8.704;2023-07-30T14:55:11;4.57;;;3.03;;
1262;SDS011;62267;50.112;8.704;2023-07-30T14:57:38;6.07;;;4.47;;
1262;SDS011;62267;50.112;8.704;2023-07-30T15:00:06;5.50;;;3.47;;
1262;SDS011;62267;50.112;8.704;2023-07-30T15:02:37;5.40;;;4.00;;
1262;SDS011;62267;50.112;8.704;2023-07-30T15:05:05;4.90;;;2.97;;
1262;SDS011;62267;50.112;8.704;2023-07-30T15:07:32;5.17;;;3.00;;
1262;SDS011;62267;50.112;8.704;2023-07-30T15:10:00;5.83;;;3.53;;